sensor_id;sensor_type;location;lat;lon;timestamp;pressure;altitude;pressure_sealevel;temperature;humidity
77011;BME280;65945;53.148;17.956;2023-12-20T00:00:18;100240.52;;;6.14;99.59
77011;BME280;65945;53.148;17.956;2023-12-20T00:03:05;100232.17;;;6.14;99.37
77011;BME280;65945;53.148;17.956;2023-12-20T00:05:32;100237.41;;;6.14;99.50
77011;BME280;65945;53.148;17.956;2023-12-20T00:07:59;100238.46;;;6.13;99.46
77011;BME280;65945;53.148;17.956;2023-12-20T00:10:26;100237.27;;;6.14;99.52
77011;BME280;65945;53.148;17.956;2023-12-20T00:12:52;100238.80;;;6.14;99.55
77011;BME280;65945;53.148;17.956;2023-12-20T00:15:19;100238.20;;;6.14;99.53
77011;BME280;65945;53.148;17.956;2023-12-20T00:17:46;100237.46;;;6.15;99.54
77011;BME280;65945;53.148;17.956;2023-12-20T00:20:12;100235.50;;;6.16;99.62
77011;BME280;65945;53.148;17.956;2023-12-20T00:22:39;100233.99;;;6.16;99.42
77011;BME280;65945;53.148;17.956;2023-12-20T00:25:06;100234.55;;;6.17;99.79
77011;BME280;65945;53.148;17.956;2023-12-20T00:27:33;100231.52;;;6.17;99.44
77011;BME280;65945;53.148;17.956;2023-12-20T00:29:59;100229.56;;;6.17;99.50
77011;BME280;65945;53.148;17.956;2023-12-20T00:32:26;100229.67;;;6.19;99.63
77011;BME280;65945;53.148;17.956;2023-12-20T00:34:52;100220.96;;;6.19;99.54
77011;BME280;65945;53.148;17.956;2023-12-20T00:37:19;100219.67;;;6.19;99.64
77011;BME280;65945;53.148;17.956;2023-12-20T00:39:46;100219.09;;;6.19;99.66
77011;BME280;65945;53.148;17.956;2023-12-20T00:42:12;100220.03;;;6.20;99.45
77011;BME280;65945;53.148;17.956;2023-12-20T00:44:39;100220.35;;;6.21;99.37
77011;BME280;65945;53.148;17.956;2023-12-20T00:47:05;100226.12;;;6.21;99.28
77011;BME280;65945;53.148;17.956;2023-12-20T00:49:32;100227.95;;;6.22;99.40
77011;BME280;65945;53.148;17.956;2023-12-20T00:51:58;100222.11;;;6.21;99.37
77011;BME280;65945;53.148;17.956;2023-12-20T00:54:25;100220.29;;;6.22;99.30
77011;BME280;65945;53.148;17.956;2023-12-20T00:56:52;100218.88;;;6.22;99.40
77011;BME280;65945;53.148;17.956;2023-12-20T00:59:18;100221.41;;;6.23;99.40
77011;BME280;65945;53.148;17.956;2023-12-20T01:01:45;100216.88;;;6.24;99.30
77011;BME280;65945;53.148;17.956;2023-12-20T01:04:12;100216.88;;;6.24;99.46
77011;BME280;65945;53.148;17.956;2023-12-20T01:06:38;100210.73;;;6.24;99.39
77011;BME280;65945;53.148;17.956;2023-12-20T01:09:05;100211.29;;;6.25;99.36
77011;BME280;65945;53.148;17.956;2023-12-20T01:11:31;100210.10;;;6.25;99.39
77011;BME280;65945;53.148;17.956;2023-12-20T01:13:58;100201.76;;;6.26;99.67
77011;BME280;65945;53.148;17.956;2023-12-20T01:16:24;100197.44;;;6.26;99.40
77011;BME280;65945;53.148;17.956;2023-12-20T01:18:51;100196.07;;;6.26;99.30
77011;BME280;65945;53.148;17.956;2023-12-20T01:21:17;100195.78;;;6.26;99.54
77011;BME280;65945;53.148;17.956;2023-12-20T01:23:44;100191.16;;;6.26;99.44
77011;BME280;65945;53.148;17.956;2023-12-20T01:26:10;100189.50;;;6.27;99.43
77011;BME280;65945;53.148;17.956;2023-12-20T01:28:38;100186.16;;;6.26;99.42
77011;BME280;65945;53.148;17.956;2023-12-20T01:31:04;100185.31;;;6.26;99.45
77011;BME280;65945;53.148;17.956;2023-12-20T01:33:31;100185.59;;;6.26;99.48
77011;BME280;65945;53.148;17.956;2023-12-20T01:35:57;100184.00;;;6.26;99.75
77011;BME280;65945;53.148;17.956;2023-12-20T01:38:24;100179.38;;;6.26;99.75
77011;BME280;65945;53.148;17.956;2023-12-20T01:40:50;100175.13;;;6.26;99.64
77011;BME280;65945;53.148;17.956;2023-12-20T01:43:17;100169.28;;;6.26;99.54
77011;BME280;65945;53.148;17.956;2023-12-20T01:45:44;100168.84;;;6.26;99.71
77011;BME280;65945;53.148;17.956;2023-12-20T01:48:10;100167.19;;;6.27;99.69
77011;BME280;65945;53.148;17.956;2023-12-20T01:50:37;100165.30;;;6.27;99.51
77011;BME280;65945;53.148;17.956;2023-12-20T01:53:07;100165.67;;;6.27;99.57
77011;BME280;65945;53.148;17.956;2023-12-20T01:55:35;100159.77;;;6.27;99.63
77011;BME280;65945;53.148;17.956;2023-12-20T01:58:03;100159.50;;;6.28;99.55
77011;BME280;65945;53.148;17.956;2023-12-20T02:00:30;100155.77;;;6.28;99.62
77011;BME280;65945;53.148;17.956;2023-12-20T02:03:00;100160.46;;;6.30;99.48
77011;BME280;65945;53.148;17.956;2023-12-20T02:05:30;100162.38;;;6.31;99.58
77011;BME280;65945;53.148;17.956;2023-12-20T02:07:57;100164.37;;;6.31;99.57
77011;BME280;65945;53.148;17.956;2023-12-20T02:10:24;100162.95;;;6.32;99.65
77011;BME280;65945;53.148;17.956;2023-12-20T02:12:51;100163.52;;;6.34;99.35
77011;BME280;65945;53.148;17.956;2023-12-20T02:15:18;100159.89;;;6.34;99.57
77011;BME280;65945;53.148;17.956;2023-12-20T02:17:45;100153.83;;;6.34;99.64
77011;BME280;65945;53.148;17.956;2023-12-20T02:20:13;100149.16;;;6.35;99.25
77011;BME280;65945;53.148;17.956;2023-12-20T02:22:39;100151.96;;;6.35;99.42
77011;BME280;65945;53.148;17.956;2023-12-20T02:25:06;100147.23;;;6.34;99.55
77011;BME280;65945;53.148;17.956;2023-12-20T02:27:34;100145.53;;;6.33;99.73
77011;BME280;65945;53.148;17.956;2023-12-20T02:30:01;100145.51;;;6.32;99.49
77011;BME280;65945;53.148;17.956;2023-12-20T02:32:27;100141.30;;;6.32;99.54
77011;BME280;65945;53.148;17.956;2023-12-20T02:34:55;100139.98;;;6.30;99.62
77011;BME280;65945;53.148;17.956;2023-12-20T02:37:22;100136.45;;;6.29;99.59
77011;BME280;65945;53.148;17.956;2023-12-20T02:39:48;100138.80;;;6.29;99.68
77011;BME280;65945;53.148;17.956;2023-12-20T02:42:15;100135.45;;;6.29;99.75
77011;BME280;65945;53.148;17.956;2023-12-20T02:44:42;100134.60;;;6.28;99.80
77011;BME280;65945;53.148;17.956;2023-12-20T02:47:08;100136.46;;;6.27;99.83
77011;BME280;65945;53.148;17.956;2023-12-20T02:49:35;100130.70;;;6.27;99.84
77011;BME280;65945;53.148;17.956;2023-12-20T02:52:01;100131.56;;;6.26;99.91
77011;BME280;65945;53.148;17.956;2023-12-20T02:54:28;100132.31;;;6.26;99.81
77011;BME280;65945;53.148;17.956;2023-12-20T02:56:54;100135.89;;;6.26;99.84
77011;BME280;65945;53.148;17.956;2023-12-20T02:59:21;100135.85;;;6.27;99.86
77011;BME280;65945;53.148;17.956;2023-12-20T03:01:48;100133.67;;;6.25;99.97
77011;BME280;65945;53.148;17.956;2023-12-20T03:04:14;100134.35;;;6.25;99.79
77011;BME280;65945;53.148;17.956;2023-12-20T03:06:41;100126.83;;;6.25;99.86
77011;BME280;65945;53.148;17.956;2023-12-20T03:09:07;100128.43;;;6.25;99.96
77011;BME280;65945;53.148;17.956;2023-12-20T03:11:34;100124.18;;;6.25;99.94
77011;BME280;65945;53.148;17.956;2023-12-20T03:14:00;100128.58;;;6.25;99.94
77011;BME280;65945;53.148;17.956;2023-12-20T03:16:27;100126.78;;;6.26;99.73
77011;BME280;65945;53.148;17.956;2023-12-20T03:18:54;100123.23;;;6.26;99.87
77011;BME280;65945;53.148;17.956;2023-12-20T03:21:20;100126.37;;;6.27;99.82
77011;BME280;65945;53.148;17.956;2023-12-20T03:23:47;100126.53;;;6.27;99.87
77011;BME280;65945;53.148;17.956;2023-12-20T03:26:14;100127.73;;;6.27;99.74
77011;BME280;65945;53.148;17.956;2023-12-20T03:28:40;100131.45;;;6.27;99.58
77011;BME280;65945;53.148;17.956;2023-12-20T03:31:07;100126.38;;;6.27;99.70
77011;BME280;65945;53.148;17.956;2023-12-20T03:33:33;100126.22;;;6.27;99.80
77011;BME280;65945;53.148;17.956;2023-12-20T03:36:00;100127.05;;;6.27;99.69
77011;BME280;65945;53.148;17.956;2023-12-20T03:38:26;100125.46;;;6.27;99.59
77011;BME280;65945;53.148;17.956;2023-12-20T03:40:53;100122.50;;;6.27;99.75
77011;BME280;65945;53.148;17.956;2023-12-20T03:43:20;100119.15;;;6.27;99.44
77011;BME280;65945;53.148;17.956;2023-12-20T03:45:46;100118.10;;;6.27;99.70
77011;BME280;65945;53.148;17.956;2023-12-20T03:48:13;100121.89;;;6.26;99.56
77011;BME280;65945;53.148;17.956;2023-12-20T03:50:39;100122.67;;;6.25;99.35
77011;BME280;65945;53.148;17.956;2023-12-20T03:53:06;100123.04;;;6.25;99.32
77011;BME280;65945;53.148;17.956;2023-12-20T03:55:33;100125.70;;;6.25;99.39
77011;BME280;65945;53.148;17.956;2023-12-20T03:57:59;100125.02;;;6.25;99.40
77011;BME280;65945;53.148;17.956;2023-12-20T04:00:26;100120.75;;;6.24;99.55
77011;BME280;65945;53.148;17.956;2023-12-20T04:02:52;100121.55;;;6.23;99.33
77011;BME280;65945;53.148;17.956;2023-12-20T04:05:19;100115.75;;;6.22;99.36
77011;BME280;65945;53.148;17.956;2023-12-20T04:07:46;100118.21;;;6.21;99.29
77011;BME280;65945;53.148;17.956;2023-12-20T04:10:12;100122.50;;;6.20;99.37
77011;BME280;65945;53.148;17.956;2023-12-20T04:12:39;100121.33;;;6.19;99.58
77011;BME280;65945;53.148;17.956;2023-12-20T04:15:06;100120.91;;;6.17;99.29
77011;BME280;65945;53.148;17.956;2023-12-20T04:17:35;100122.97;;;6.15;99.29
77011;BME280;65945;53.148;17.956;2023-12-20T04:20:02;100118.42;;;6.13;99.17
77011;BME280;65945;53.148;17.956;2023-12-20T04:22:29;100115.55;;;6.13;99.11
77011;BME280;65945;53.148;17.956;2023-12-20T04:24:56;100116.80;;;6.12;99.31
77011;BME280;65945;53.148;17.956;2023-12-20T04:27:22;100118.88;;;6.10;99.34
77011;BME280;65945;53.148;17.956;2023-12-20T04:29:49;100114.27;;;6.09;99.02
77011;BME280;65945;53.148;17.956;2023-12-20T04:32:15;100113.39;;;6.07;98.85
77011;BME280;65945;53.148;17.956;2023-12-20T04:34:42;100113.88;;;6.06;99.08
77011;BME280;65945;53.148;17.956;2023-12-20T04:37:08;100114.12;;;6.04;98.81
77011;BME280;65945;53.148;17.956;2023-12-20T04:39:35;100116.80;;;6.02;98.81
77011;BME280;65945;53.148;17.956;2023-12-20T04:42:02;100122.48;;;6.01;99.07
77011;BME280;65945;53.148;17.956;2023-12-20T04:44:29;100119.90;;;5.99;98.89
77011;BME280;65945;53.148;17.956;2023-12-20T04:46:55;100114.30;;;5.98;98.59
77011;BME280;65945;53.148;17.956;2023-12-20T04:49:23;100115.75;;;5.95;98.75
77011;BME280;65945;53.148;17.956;2023-12-20T04:51:49;100120.91;;;5.93;98.54
77011;BME280;65945;53.148;17.956;2023-12-20T04:54:16;100126.25;;;5.92;98.42
77011;BME280;65945;53.148;17.956;2023-12-20T04:56:42;100128.64;;;5.90;98.30
77011;BME280;65945;53.148;17.956;2023-12-20T04:59:09;100129.69;;;5.88;98.00
77011;BME280;65945;53.148;17.956;2023-12-20T05:01:35;100126.84;;;5.86;98.02
77011;BME280;65945;53.148;17.956;2023-12-20T05:04:02;100127.87;;;5.85;98.28
77011;BME280;65945;53.148;17.956;2023-12-20T05:06:29;100134.85;;;5.83;97.94
77011;BME280;65945;53.148;17.956;2023-12-20T05:08:55;100141.10;;;5.80;98.13
77011;BME280;65945;53.148;17.956;2023-12-20T05:11:22;100140.33;;;5.77;97.96
77011;BME280;65945;53.148;17.956;2023-12-20T05:13:49;100135.34;;;5.74;97.84
77011;BME280;65945;53.148;17.956;2023-12-20T05:16:15;100131.73;;;5.70;97.73
77011;BME280;65945;53.148;17.956;2023-12-20T05:18:45;100130.08;;;5.66;98.10
77011;BME280;65945;53.148;17.956;2023-12-20T05:21:12;100126.02;;;5.62;97.61
77011;BME280;65945;53.148;17.956;2023-12-20T05:23:38;100128.54;;;5.58;97.83
77011;BME280;65945;53.148;17.956;2023-12-20T05:26:05;100128.88;;;5.54;98.11
77011;BME280;65945;53.148;17.956;2023-12-20T05:28:31;100128.47;;;5.51;97.82
77011;BME280;65945;53.148;17.956;2023-12-20T05:30:58;100124.74;;;5.49;98.15
77011;BME280;65945;53.148;17.956;2023-12-20T05:33:24;100121.41;;;5.46;98.16
77011;BME280;65945;53.148;17.956;2023-12-20T05:35:51;100127.74;;;5.43;98.41
77011;BME280;65945;53.148;17.956;2023-12-20T05:38:18;100130.77;;;5.41;98.66
77011;BME280;65945;53.148;17.956;2023-12-20T05:40:44;100127.84;;;5.37;98.52
77011;BME280;65945;53.148;17.956;2023-12-20T05:43:11;100125.38;;;5.34;98.37
77011;BME280;65945;53.148;17.956;2023-12-20T05:45:38;100132.20;;;5.30;98.63
77011;BME280;65945;53.148;17.956;2023-12-20T05:48:05;100132.98;;;5.25;98.59
77011;BME280;65945;53.148;17.956;2023-12-20T05:50:32;100125.64;;;5.21;98.57
77011;BME280;65945;53.148;17.956;2023-12-20T05:52:58;100128.05;;;5.17;98.71
77011;BME280;65945;53.148;17.956;2023-12-20T05:55:25;100124.69;;;5.12;98.48
77011;BME280;65945;53.148;17.956;2023-12-20T05:57:51;100127.16;;;5.07;98.51
77011;BME280;65945;53.148;17.956;2023-12-20T06:00:19;100119.20;;;5.02;98.65
77011;BME280;65945;53.148;17.956;2023-12-20T06:02:45;100121.98;;;4.97;99.11
77011;BME280;65945;53.148;17.956;2023-12-20T06:05:12;100118.69;;;4.92;98.76
77011;BME280;65945;53.148;17.956;2023-12-20T06:07:38;100115.38;;;4.86;98.98
77011;BME280;65945;53.148;17.956;2023-12-20T06:10:05;100115.28;;;4.82;98.71
77011;BME280;65945;53.148;17.956;2023-12-20T06:12:33;100116.70;;;4.77;98.90
77011;BME280;65945;53.148;17.956;2023-12-20T06:15:02;100118.08;;;4.71;98.77
77011;BME280;65945;53.148;17.956;2023-12-20T06:17:29;100122.98;;;4.66;98.97
77011;BME280;65945;53.148;17.956;2023-12-20T06:19:57;100123.70;;;4.63;98.90
77011;BME280;65945;53.148;17.956;2023-12-20T06:22:24;100124.03;;;4.60;99.46
77011;BME280;65945;53.148;17.956;2023-12-20T06:24:51;100125.27;;;4.56;99.11
77011;BME280;65945;53.148;17.956;2023-12-20T06:27:17;100124.66;;;4.53;99.18
77011;BME280;65945;53.148;17.956;2023-12-20T06:29:44;100126.20;;;4.49;99.05
77011;BME280;65945;53.148;17.956;2023-12-20T06:32:11;100127.50;;;4.45;99.07
77011;BME280;65945;53.148;17.956;2023-12-20T06:34:38;100133.52;;;4.42;99.12
77011;BME280;65945;53.148;17.956;2023-12-20T06:37:04;100131.02;;;4.39;99.21
77011;BME280;65945;53.148;17.956;2023-12-20T06:39:31;100127.35;;;4.35;98.94
77011;BME280;65945;53.148;17.956;2023-12-20T06:42:00;100128.81;;;4.31;99.16
77011;BME280;65945;53.148;17.956;2023-12-20T06:44:27;100128.98;;;4.28;99.01
77011;BME280;65945;53.148;17.956;2023-12-20T06:46:53;100128.88;;;4.25;99.01
77011;BME280;65945;53.148;17.956;2023-12-20T06:49:20;100129.13;;;4.22;98.87
77011;BME280;65945;53.148;17.956;2023-12-20T06:51:46;100125.46;;;4.21;98.94
77011;BME280;65945;53.148;17.956;2023-12-20T06:54:13;100125.40;;;4.22;99.45
77011;BME280;65945;53.148;17.956;2023-12-20T06:56:40;100124.07;;;4.23;99.32
77011;BME280;65945;53.148;17.956;2023-12-20T06:59:07;100127.66;;;4.25;99.41
77011;BME280;65945;53.148;17.956;2023-12-20T07:01:34;100129.80;;;4.26;99.41
77011;BME280;65945;53.148;17.956;2023-12-20T07:04:00;100128.13;;;4.26;99.31
77011;BME280;65945;53.148;17.956;2023-12-20T07:06:27;100128.67;;;4.26;99.42
77011;BME280;65945;53.148;17.956;2023-12-20T07:08:54;100132.63;;;4.27;99.39
77011;BME280;65945;53.148;17.956;2023-12-20T07:11:20;100133.03;;;4.27;99.12
77011;BME280;65945;53.148;17.956;2023-12-20T07:13:47;100132.06;;;4.28;99.30
77011;BME280;65945;53.148;17.956;2023-12-20T07:16:14;100137.09;;;4.29;99.46
77011;BME280;65945;53.148;17.956;2023-12-20T07:18:40;100142.80;;;4.28;99.10
77011;BME280;65945;53.148;17.956;2023-12-20T07:21:07;100142.58;;;4.26;99.12
77011;BME280;65945;53.148;17.956;2023-12-20T07:23:34;100147.36;;;4.22;98.99
77011;BME280;65945;53.148;17.956;2023-12-20T07:26:01;100147.94;;;4.20;98.67
77011;BME280;65945;53.148;17.956;2023-12-20T07:28:27;100146.89;;;4.16;98.75
77011;BME280;65945;53.148;17.956;2023-12-20T07:30:55;100147.77;;;4.12;98.61
77011;BME280;65945;53.148;17.956;2023-12-20T07:33:21;100143.21;;;4.07;98.47
77011;BME280;65945;53.148;17.956;2023-12-20T07:35:48;100143.77;;;4.04;98.81
77011;BME280;65945;53.148;17.956;2023-12-20T07:38:14;100144.71;;;4.02;98.73
77011;BME280;65945;53.148;17.956;2023-12-20T07:40:41;100147.42;;;3.97;99.00
77011;BME280;65945;53.148;17.956;2023-12-20T07:43:07;100147.52;;;3.94;98.69
77011;BME280;65945;53.148;17.956;2023-12-20T07:45:34;100141.33;;;3.91;98.56
77011;BME280;65945;53.148;17.956;2023-12-20T07:48:01;100147.86;;;3.88;98.64
77011;BME280;65945;53.148;17.956;2023-12-20T07:50:28;100151.73;;;3.84;98.35
77011;BME280;65945;53.148;17.956;2023-12-20T07:52:54;100151.43;;;3.81;98.55
77011;BME280;65945;53.148;17.956;2023-12-20T07:55:21;100148.01;;;3.78;98.62
77011;BME280;65945;53.148;17.956;2023-12-20T07:57:47;100144.83;;;3.76;98.54
77011;BME280;65945;53.148;17.956;2023-12-20T08:00:14;100146.63;;;3.74;98.86
77011;BME280;65945;53.148;17.956;2023-12-20T08:02:41;100152.58;;;3.74;98.94
77011;BME280;65945;53.148;17.956;2023-12-20T08:05:08;100158.89;;;3.73;98.74
77011;BME280;65945;53.148;17.956;2023-12-20T08:07:34;100157.98;;;3.71;98.70
77011;BME280;65945;53.148;17.956;2023-12-20T08:10:01;100155.77;;;3.70;98.70
77011;BME280;65945;53.148;17.956;2023-12-20T08:12:27;100149.73;;;3.68;98.82
77011;BME280;65945;53.148;17.956;2023-12-20T08:14:54;100153.16;;;3.67;98.73
77011;BME280;65945;53.148;17.956;2023-12-20T08:17:21;100149.11;;;3.67;98.78
77011;BME280;65945;53.148;17.956;2023-12-20T08:19:49;100144.38;;;3.66;98.93
77011;BME280;65945;53.148;17.956;2023-12-20T08:22:16;100142.55;;;3.65;98.86
77011;BME280;65945;53.148;17.956;2023-12-20T08:24:42;100141.99;;;3.64;99.16
77011;BME280;65945;53.148;17.956;2023-12-20T08:27:09;100139.16;;;3.65;98.95
77011;BME280;65945;53.148;17.956;2023-12-20T08:29:36;100138.30;;;3.68;99.41
77011;BME280;65945;53.148;17.956;2023-12-20T08:32:03;100136.41;;;3.70;99.47
77011;BME280;65945;53.148;17.956;2023-12-20T08:34:29;100139.39;;;3.72;99.29
77011;BME280;65945;53.148;17.956;2023-12-20T08:36:56;100139.03;;;3.75;99.78
77011;BME280;65945;53.148;17.956;2023-12-20T08:39:23;100138.50;;;3.78;99.93
77011;BME280;65945;53.148;17.956;2023-12-20T08:41:49;100139.69;;;3.84;99.78
77011;BME280;65945;53.148;17.956;2023-12-20T08:44:16;100139.58;;;3.88;99.87
77011;BME280;65945;53.148;17.956;2023-12-20T08:46:43;100139.18;;;3.94;99.98
77011;BME280;65945;53.148;17.956;2023-12-20T08:49:09;100136.80;;;3.98;99.90
77011;BME280;65945;53.148;17.956;2023-12-20T08:51:36;100130.27;;;4.03;99.90
77011;BME280;65945;53.148;17.956;2023-12-20T08:54:06;100129.37;;;4.07;99.87
77011;BME280;65945;53.148;17.956;2023-12-20T08:56:34;100128.27;;;4.10;99.64
77011;BME280;65945;53.148;17.956;2023-12-20T08:59:01;100122.96;;;4.12;99.50
77011;BME280;65945;53.148;17.956;2023-12-20T09:01:27;100122.59;;;4.14;99.69
77011;BME280;65945;53.148;17.956;2023-12-20T09:03:54;100125.81;;;4.15;99.28
77011;BME280;65945;53.148;17.956;2023-12-20T09:06:21;100128.60;;;4.18;99.42
77011;BME280;65945;53.148;17.956;2023-12-20T09:08:47;100125.48;;;4.24;99.18
77011;BME280;65945;53.148;17.956;2023-12-20T09:11:14;100120.29;;;4.29;99.31
77011;BME280;65945;53.148;17.956;2023-12-20T09:13:41;100120.16;;;4.35;99.38
77011;BME280;65945;53.148;17.956;2023-12-20T09:16:08;100115.17;;;4.43;99.35
77011;BME280;65945;53.148;17.956;2023-12-20T09:18:35;100111.20;;;4.53;98.84
77011;BME280;65945;53.148;17.956;2023-12-20T09:21:02;100113.48;;;4.63;98.93
77011;BME280;65945;53.148;17.956;2023-12-20T09:23:28;100112.70;;;4.71;98.61
77011;BME280;65945;53.148;17.956;2023-12-20T09:25:55;100109.27;;;4.78;98.47
77011;BME280;65945;53.148;17.956;2023-12-20T09:28:22;100107.34;;;4.86;97.91
77011;BME280;65945;53.148;17.956;2023-12-20T09:30:48;100104.26;;;4.93;97.42
77011;BME280;65945;53.148;17.956;2023-12-20T09:33:15;100106.22;;;4.99;96.76
77011;BME280;65945;53.148;17.956;2023-12-20T09:35:42;100106.73;;;5.05;95.99
77011;BME280;65945;53.148;17.956;2023-12-20T09:38:09;100108.95;;;5.10;96.14
77011;BME280;65945;53.148;17.956;2023-12-20T09:40:36;100106.16;;;5.15;96.39
77011;BME280;65945;53.148;17.956;2023-12-20T09:43:13;100099.73;;;5.19;95.72
77011;BME280;65945;53.148;17.956;2023-12-20T09:45:42;100098.35;;;5.26;95.31
77011;BME280;65945;53.148;17.956;2023-12-20T09:48:12;100091.94;;;5.30;94.35
77011;BME280;65945;53.148;17.956;2023-12-20T09:50:41;100086.38;;;5.36;94.91
77011;BME280;65945;53.148;17.956;2023-12-20T09:53:09;100074.62;;;5.43;94.41
77011;BME280;65945;53.148;17.956;2023-12-20T09:55:36;100059.81;;;5.49;94.06
77011;BME280;65945;53.148;17.956;2023-12-20T09:58:04;100057.40;;;5.57;93.95
77011;BME280;65945;53.148;17.956;2023-12-20T10:00:31;100058.34;;;5.67;94.35
77011;BME280;65945;53.148;17.956;2023-12-20T10:02:59;100058.83;;;5.78;93.71
77011;BME280;65945;53.148;17.956;2023-12-20T10:05:29;100055.59;;;5.85;93.12
77011;BME280;65945;53.148;17.956;2023-12-20T10:07:56;100048.76;;;5.97;93.12
77011;BME280;65945;53.148;17.956;2023-12-20T10:10:23;100048.10;;;6.10;92.79
77011;BME280;65945;53.148;17.956;2023-12-20T10:13:07;100047.61;;;6.22;92.14
77011;BME280;65945;53.148;17.956;2023-12-20T10:15:36;100047.56;;;6.25;90.80
77011;BME280;65945;53.148;17.956;2023-12-20T10:18:04;100045.45;;;6.26;90.86
77011;BME280;65945;53.148;17.956;2023-12-20T10:20:31;100038.00;;;6.23;90.10
77011;BME280;65945;53.148;17.956;2023-12-20T10:22:59;100032.92;;;6.21;90.84
77011;BME280;65945;53.148;17.956;2023-12-20T10:25:27;100028.36;;;6.18;91.05
77011;BME280;65945;53.148;17.956;2023-12-20T10:28:16;100024.27;;;6.12;90.01
77011;BME280;65945;53.148;17.956;2023-12-20T10:30:49;100022.26;;;6.06;91.15
77011;BME280;65945;53.148;17.956;2023-12-20T10:33:26;100015.91;;;6.02;90.98
77011;BME280;65945;53.148;17.956;2023-12-20T10:35:53;100009.79;;;5.97;91.09
77011;BME280;65945;53.148;17.956;2023-12-20T10:38:20;100006.67;;;5.92;90.75
77011;BME280;65945;53.148;17.956;2023-12-20T10:40:47;99999.40;;;5.87;90.51
77011;BME280;65945;53.148;17.956;2023-12-20T10:43:15;100001.05;;;5.84;90.76
77011;BME280;65945;53.148;17.956;2023-12-20T10:45:43;100001.98;;;5.83;91.31
77011;BME280;65945;53.148;17.956;2023-12-20T10:48:10;100000.45;;;5.83;91.45
77011;BME280;65945;53.148;17.956;2023-12-20T10:50:38;99993.67;;;5.82;91.62
77011;BME280;65945;53.148;17.956;2023-12-20T10:53:06;99990.53;;;5.81;91.43
77011;BME280;65945;53.148;17.956;2023-12-20T10:55:33;99987.80;;;5.78;90.99
77011;BME280;65945;53.148;17.956;2023-12-20T10:58:01;99983.66;;;5.75;90.89
77011;BME280;65945;53.148;17.956;2023-12-20T11:00:29;99980.95;;;5.72;90.74
77011;BME280;65945;53.148;17.956;2023-12-20T11:03:00;99979.23;;;5.71;90.99
77011;BME280;65945;53.148;17.956;2023-12-20T11:05:50;99972.40;;;5.68;91.11
77011;BME280;65945;53.148;17.956;2023-12-20T11:08:32;99963.33;;;5.64;90.60
77011;BME280;65945;53.148;17.956;2023-12-20T11:11:08;99952.81;;;5.62;90.86
77011;BME280;65945;53.148;17.956;2023-12-20T11:13:41;99948.95;;;5.60;90.78
77011;BME280;65945;53.148;17.956;2023-12-20T11:16:10;99941.37;;;5.57;91.08
77011;BME280;65945;53.148;17.956;2023-12-20T11:18:40;99940.77;;;5.55;90.94
77011;BME280;65945;53.148;17.956;2023-12-20T11:21:07;99932.92;;;5.53;91.13
77011;BME280;65945;53.148;17.956;2023-12-20T11:23:34;99922.80;;;5.52;90.74
77011;BME280;65945;53.148;17.956;2023-12-20T11:26:02;99921.69;;;5.50;90.44
77011;BME280;65945;53.148;17.956;2023-12-20T11:28:29;99918.60;;;5.48;90.44
77011;BME280;65945;53.148;17.956;2023-12-20T11:31:01;99909.59;;;5.48;90.79
77011;BME280;65945;53.148;17.956;2023-12-20T11:33:38;99906.25;;;5.48;90.58
77011;BME280;65945;53.148;17.956;2023-12-20T11:36:13;99905.30;;;5.50;91.16
77011;BME280;65945;53.148;17.956;2023-12-20T11:38:58;99897.76;;;5.51;90.94
77011;BME280;65945;53.148;17.956;2023-12-20T11:41:26;99891.18;;;5.52;91.06
77011;BME280;65945;53.148;17.956;2023-12-20T11:43:53;99886.84;;;5.53;91.40
77011;BME280;65945;53.148;17.956;2023-12-20T11:46:21;99879.85;;;5.53;91.06
77011;BME280;65945;53.148;17.956;2023-12-20T11:48:48;99879.79;;;5.53;91.54
77011;BME280;65945;53.148;17.956;2023-12-20T11:51:15;99874.52;;;5.52;91.55
77011;BME280;65945;53.148;17.956;2023-12-20T11:53:42;99874.73;;;5.51;91.66
77011;BME280;65945;53.148;17.956;2023-12-20T11:56:09;99867.92;;;5.49;91.56
77011;BME280;65945;53.148;17.956;2023-12-20T11:58:36;99863.16;;;5.47;92.27
77011;BME280;65945;53.148;17.956;2023-12-20T12:01:04;99864.05;;;5.46;92.10
77011;BME280;65945;53.148;17.956;2023-12-20T12:03:33;99853.67;;;5.44;92.08
77011;BME280;65945;53.148;17.956;2023-12-20T12:06:00;99846.40;;;5.44;92.41
77011;BME280;65945;53.148;17.956;2023-12-20T12:08:28;99846.33;;;5.44;92.25
77011;BME280;65945;53.148;17.956;2023-12-20T12:10:55;99842.07;;;5.43;92.62
77011;BME280;65945;53.148;17.956;2023-12-20T12:13:22;99840.61;;;5.43;92.46
77011;BME280;65945;53.148;17.956;2023-12-20T12:15:49;99836.05;;;5.42;92.61
77011;BME280;65945;53.148;17.956;2023-12-20T12:18:17;99833.98;;;5.41;92.58
77011;BME280;65945;53.148;17.956;2023-12-20T12:20:44;99830.23;;;5.40;92.55
77011;BME280;65945;53.148;17.956;2023-12-20T12:23:10;99825.52;;;5.39;92.92
77011;BME280;65945;53.148;17.956;2023-12-20T12:25:37;99821.09;;;5.39;92.68
77011;BME280;65945;53.148;17.956;2023-12-20T12:28:04;99815.13;;;5.39;92.94
77011;BME280;65945;53.148;17.956;2023-12-20T12:30:31;99812.90;;;5.38;93.02
77011;BME280;65945;53.148;17.956;2023-12-20T12:32:58;99810.29;;;5.37;92.85
77011;BME280;65945;53.148;17.956;2023-12-20T12:35:24;99807.08;;;5.36;93.00
77011;BME280;65945;53.148;17.956;2023-12-20T12:37:51;99805.94;;;5.36;93.22
77011;BME280;65945;53.148;17.956;2023-12-20T12:40:18;99802.64;;;5.34;93.29
77011;BME280;65945;53.148;17.956;2023-12-20T12:42:47;99799.34;;;5.33;93.23
77011;BME280;65945;53.148;17.956;2023-12-20T12:45:14;99796.14;;;5.32;93.30
77011;BME280;65945;53.148;17.956;2023-12-20T12:47:41;99793.61;;;5.32;93.39
77011;BME280;65945;53.148;17.956;2023-12-20T12:50:08;99782.86;;;5.29;93.00
77011;BME280;65945;53.148;17.956;2023-12-20T12:52:35;99781.63;;;5.26;93.05